Airfield :
LOGIN :

Register | Disclaimer

   EN    FR    IT 

 










Legend :    VFR   Marginal VFR   IFR   Intensive IFR   Very Intensive IFR
Visi :
Ceiling :
>= 8 km
>= 3000ft
5 to 8 km
1000 to 3000 ft
1500m to 5 km
500 to 1000 ft
800 to 1500m
200 to 500 ft
< 800m
< 200 ft
Symbols :   Thunderstorms  Fog  Heavy snow  Heavy precipitations  Wind > 20 kt
SIGMETs :     Misc.  Thunderstorms  Icing  Turbulence  Mountain Waves  Volcanic Ashes






- Airport Elevation : 219 ft
- IATA code : DNR


LFRD - Dinard

CURRENT METAR :
  • 301430Z AUTO 07006KT 9999 OVC023 08/05 Q1023 NOSIG

EXPIRED METARs :
  • 301400Z AUTO 08005KT 040V100 9999 OVC021 08/05 Q1023 NOSIG
  • 301330Z AUTO 07005KT 9999 OVC020 08/04 Q1023 NOSIG
  • 301300Z AUTO 09004KT 050V130 9999 OVC020 08/05 Q1023 NOSIG
  • 301230Z AUTO 12006KT 090V150 9999 BKN019 08/04 Q1023 NOSIG
  • 301200Z AUTO 12006KT 090V180 9999 BKN018 09/05 Q1023 NOSIG

TAF TAF LFRD
Valid from the 30 at 12:00 until the 01 at 12:00 UTC


301100Z 3012/0112 09007KT 9999 SCT018
PROB30
TEMPO 0103/0107 4000 BR BKN012
ATIS : +33 2 99 16 81 50



MET'MAP, your aeronautical weather chart ! - Copyright ORBIFLY December 2007 - Disclaimer

ORBIFLY MET'MAP TEAM :

Programming & Development : Alexandra Zaïnal
Original concept : Baudouin d'Aumeries
Technical & hardware support : Manuel Goepfert
Assistance : Marc-Olivier Méhu




SOURCES & CREDITS :

   NOAA